• Join FlightAware (Why Join?)
  • Login
  • US Flag 
11:27AM EDT


 

Airport Tracker/Info


-or-


 

Live Flight TrackerFlight Track Log ✈ SLI421 ✈ 04-Jul-2013 ✈ MMMD / MID - MMMX / MEX

Flight Track Log - Related Links

Times and Time Zones

All times are in EDT time to prevent confusion due to time zone crossing. See the SLI421 flight status page for this flight to view local times or setup timezone preferences in your user account.

Time Position Orientation Groundspeed Altitude Reporting Facility
EDT Latitude Longitude Course Direction KTS MPH feet Rate Location/Type
06:28PM 20.6238 -91.9276 262° West  Level Estimated
06:29PM 20.6121 -92.0084 261° West  Level Estimated
06:30PM 20.6003 -92.0893 261° West  Level Estimated
06:31PM 20.5885 -92.1702 261° West  Level Estimated
06:32PM 20.5767 -92.2510 261° West  Level Estimated
06:33PM 20.5648 -92.3319 261° West  Level Estimated
06:34PM 20.5529 -92.4127 261° West  Level Estimated
06:35PM 20.5409 -92.4935 261° West  Level Estimated
06:36PM 20.5289 -92.5743 261° West  Level Estimated
06:37PM 20.5169 -92.6551 261° West  Level Estimated
06:38PM 20.5048 -92.7359 261° West  Level Estimated
06:39PM 20.4927 -92.8167 261° West  Level Estimated
06:40PM 20.4806 -92.8974 261° West  Level Estimated
06:41PM 20.4684 -92.9781 261° West  Level Estimated
06:42PM 20.4562 -93.0589 261° West  Level Estimated
06:43PM 20.4439 -93.1396 261° West  Level Estimated
06:44PM 20.4316 -93.2203 261° West  Level Estimated
06:45PM 20.4193 -93.3010 261° West  Level Estimated
06:46PM 20.4069 -93.3817 261° West  Level Estimated
06:47PM 20.3945 -93.4623 261° West  Level Estimated
06:48PM 20.3821 -93.5430 261° West  Level Estimated
06:49PM 20.3696 -93.6236 261° West  Level Estimated
06:50PM 20.3571 -93.7042 261° West  Level Estimated
06:51PM 20.3445 -93.7848 261° West  Level Estimated
06:52PM 20.3319 -93.8654 261° West  Level Estimated
06:53PM 20.3193 -93.9460 261° West  Level Estimated
06:54PM 20.3066 -94.0266 260° West  Level Estimated
06:55PM 20.2939 -94.1071 260° West  Level Estimated
06:56PM 20.2812 -94.1877 260° West  Level Estimated
06:57PM 20.2684 -94.2682 260° West  Level Estimated
06:58PM 20.2556 -94.3487 260° West  Level Estimated
06:59PM 20.2428 -94.4292 260° West  Level Estimated
07:00PM 20.2299 -94.5097 260° West  Level Estimated
07:01PM 20.2170 -94.5902 260° West  Level Estimated
07:02PM 20.2040 -94.6707 260° West  Level Estimated
07:03PM 20.1910 -94.7511 260° West  Level Estimated
07:04PM 20.1780 -94.8316 260° West  Level Estimated
07:05PM 20.1649 -94.9120 260° West  Level Estimated
07:06PM 20.1518 -94.9924 260° West  Level Estimated
07:07PM 20.1387 -95.0728 260° West  Level Estimated
07:08PM 20.1255 -95.1532 260° West  Level Estimated
07:09PM 20.1123 -95.2335 260° West  Level Estimated
07:10PM 20.0990 -95.3139 260° West  Level Estimated
07:11PM 20.0857 -95.3942 260° West  Level Estimated
07:12PM 20.0724 -95.4746 260° West  Level Estimated
07:13PM 20.0590 -95.5549 260° West  Level Estimated
07:14PM 20.0457 -95.6352 260° West  Level Estimated
07:15PM 20.0322 -95.7155 260° West  Level Estimated
07:16PM 20.0187 -95.7957 260° West  Level Estimated
07:17PM 20.0053 -95.8760 260° West  Level Estimated
07:18PM 19.9917 -95.9562 260° West  Level Estimated
07:19PM 19.9781 -96.0365 260° West  Level Estimated
07:20PM 19.9645 -96.1167 260° West  Level Estimated
07:21PM 19.9509 -96.1969 260° West  Level Estimated
07:22PM 19.9372 -96.2771 260° West  Level Estimated
07:23PM 19.9235 -96.3573 260° West  Level Estimated
07:24PM 19.9097 -96.4374 260° West  Level Estimated
07:25PM 19.8959 -96.5176 260° West  Level Estimated
07:26PM 19.8821 -96.5977 260° West  Level Estimated
07:27PM 19.8682 -96.6778 260° West  Level Estimated
07:28PM 19.8543 -96.7579 260° West  Level Estimated
07:29PM 19.8404 -96.8380 260° West  Level Estimated
07:30PM 19.8264 -96.9181 260° West  Level Estimated